Summerville, Texas
Current Conditions -  °F | °C
As of 3:48 PM on Sunday 21 Dec 2014 (Local Time) from KHYI Reporting Station
Overcast Overcast  
Wind Chill: 55°   Ceiling: 1100
Heat Index: 55°   Visibility: 10mi
Dew Point: 50°   Wind: 12mph
Humidity: 82%   Direction: 190°S
Pressure: 29.93"   Gusts: NA
Location:  29.481°N, 97.4305°W
Report Text: KHYI 212148Z 19010KT 10SM OVC011 13/10 A2993
Loading
Personal Weather Stations






























Interactive Weather Map New forecast layout! Learn more

10-Day Weather Forecast

Advertisements
Track Severe Weather on mobile